sensor_id;sensor_type;location;lat;lon;timestamp;pressure;altitude;pressure_sealevel;temperature;humidity
46942;BME280;32676;52.630;4.896;2022-07-23T00:00:06;99436.34;;;15.18;75.81
46942;BME280;32676;52.630;4.896;2022-07-23T00:02:33;99426.84;;;15.15;76.18
46942;BME280;32676;52.630;4.896;2022-07-23T00:05:00;99431.25;;;15.15;75.69
46942;BME280;32676;52.630;4.896;2022-07-23T00:07:26;99412.97;;;15.12;75.64
46942;BME280;32676;52.630;4.896;2022-07-23T00:09:53;99409.63;;;15.10;76.21
46942;BME280;32676;52.630;4.896;2022-07-23T00:12:21;99403.56;;;15.08;76.04
46942;BME280;32676;52.630;4.896;2022-07-23T00:14:47;99388.88;;;15.04;76.45
46942;BME280;32676;52.630;4.896;2022-07-23T00:17:14;99371.66;;;14.98;76.55
46942;BME280;32676;52.630;4.896;2022-07-23T00:19:40;99355.19;;;14.94;76.63
46942;BME280;32676;52.630;4.896;2022-07-23T00:22:07;99347.47;;;14.91;76.42
46942;BME280;32676;52.630;4.896;2022-07-23T00:24:33;99341.44;;;14.89;76.99
46942;BME280;32676;52.630;4.896;2022-07-23T00:27:00;99338.91;;;14.88;76.91
46942;BME280;32676;52.630;4.896;2022-07-23T00:29:28;99349.50;;;14.88;76.93
46942;BME280;32676;52.630;4.896;2022-07-23T00:31:54;99337.69;;;14.81;76.94
46942;BME280;32676;52.630;4.896;2022-07-23T00:34:20;99338.28;;;14.84;77.27
46942;BME280;32676;52.630;4.896;2022-07-23T00:36:47;99345.28;;;14.85;76.73
46942;BME280;32676;52.630;4.896;2022-07-23T00:39:13;99333.47;;;14.78;76.88
46942;BME280;32676;52.630;4.896;2022-07-23T00:41:40;99335.16;;;14.79;77.14
46942;BME280;32676;52.630;4.896;2022-07-23T00:44:23;99338.75;;;14.78;76.85
46942;BME280;32676;52.630;4.896;2022-07-23T00:46:52;99350.56;;;14.85;76.53
46942;BME280;32676;52.630;4.896;2022-07-23T00:49:19;99342.75;;;14.84;76.31
46942;BME280;32676;52.630;4.896;2022-07-23T00:51:46;99337.56;;;14.82;76.53
46942;BME280;32676;52.630;4.896;2022-07-23T00:54:13;99342.84;;;14.82;76.92
46942;BME280;32676;52.630;4.896;2022-07-23T00:56:41;99333.47;;;14.78;76.96
46942;BME280;32676;52.630;4.896;2022-07-23T00:59:08;99329.03;;;14.78;76.96
46942;BME280;32676;52.630;4.896;2022-07-23T01:01:35;99329.13;;;14.77;77.04
46942;BME280;32676;52.630;4.896;2022-07-23T01:04:04;99323.13;;;14.75;77.10
46942;BME280;32676;52.630;4.896;2022-07-23T01:06:34;99319.75;;;14.73;77.18
46942;BME280;32676;52.630;4.896;2022-07-23T01:09:01;99316.38;;;14.71;76.82
46942;BME280;32676;52.630;4.896;2022-07-23T01:11:28;99299.50;;;14.61;77.32
46942;BME280;32676;52.630;4.896;2022-07-23T01:13:55;99309.84;;;14.64;77.05
46942;BME280;32676;52.630;4.896;2022-07-23T01:16:22;99315.53;;;14.70;77.05
46942;BME280;32676;52.630;4.896;2022-07-23T01:18:48;99325.28;;;14.70;77.11
46942;BME280;32676;52.630;4.896;2022-07-23T01:21:18;99327.78;;;14.71;76.98
46942;BME280;32676;52.630;4.896;2022-07-23T01:23:46;99323.56;;;14.69;76.77
46942;BME280;32676;52.630;4.896;2022-07-23T01:26:12;99301.91;;;14.64;77.37
46942;BME280;32676;52.630;4.896;2022-07-23T01:28:42;99288.91;;;14.61;77.77
46942;BME280;32676;52.630;4.896;2022-07-23T01:31:08;99286.53;;;14.57;77.96
46942;BME280;32676;52.630;4.896;2022-07-23T01:33:35;99282.16;;;14.56;77.95
46942;BME280;32676;52.630;4.896;2022-07-23T01:36:01;99276.13;;;14.54;77.91
46942;BME280;32676;52.630;4.896;2022-07-23T01:38:28;99269.16;;;14.53;77.48
46942;BME280;32676;52.630;4.896;2022-07-23T01:40:56;99276.13;;;14.54;77.96
46942;BME280;32676;52.630;4.896;2022-07-23T01:43:22;99253.50;;;14.39;77.94
46942;BME280;32676;52.630;4.896;2022-07-23T01:45:49;99266.75;;;14.50;77.60
46942;BME280;32676;52.630;4.896;2022-07-23T01:48:15;99266.75;;;14.50;77.65
46942;BME280;32676;52.630;4.896;2022-07-23T01:50:42;99253.84;;;14.46;77.67
46942;BME280;32676;52.630;4.896;2022-07-23T01:53:09;99254.09;;;14.43;77.86
46942;BME280;32676;52.630;4.896;2022-07-23T01:55:35;99254.09;;;14.43;78.23
46942;BME280;32676;52.630;4.896;2022-07-23T01:58:03;99245.66;;;14.37;78.00
46942;BME280;32676;52.630;4.896;2022-07-23T02:00:30;99253.03;;;14.45;77.92
46942;BME280;32676;52.630;4.896;2022-07-23T02:02:57;99247.44;;;14.37;77.60
46942;BME280;32676;52.630;4.896;2022-07-23T02:05:24;99236.16;;;14.35;77.60
46942;BME280;32676;52.630;4.896;2022-07-23T02:07:51;99237.84;;;14.36;77.61
46942;BME280;32676;52.630;4.896;2022-07-23T02:10:20;99218.84;;;14.31;77.67
46942;BME280;32676;52.630;4.896;2022-07-23T02:12:46;99202.38;;;14.27;78.01
46942;BME280;32676;52.630;4.896;2022-07-23T02:15:14;99200.56;;;14.28;77.77
46942;BME280;32676;52.630;4.896;2022-07-23T02:17:41;99192.88;;;14.25;78.24
46942;BME280;32676;52.630;4.896;2022-07-23T02:20:11;99178.09;;;14.22;78.46
46942;BME280;32676;52.630;4.896;2022-07-23T02:22:39;99169.53;;;14.18;78.32
46942;BME280;32676;52.630;4.896;2022-07-23T02:25:07;99152.56;;;14.10;78.13
46942;BME280;32676;52.630;4.896;2022-07-23T02:27:34;99145.50;;;14.10;78.75
46942;BME280;32676;52.630;4.896;2022-07-23T02:30:00;99135.16;;;14.07;78.55
46942;BME280;32676;52.630;4.896;2022-07-23T02:32:28;99134.22;;;14.08;78.48
46942;BME280;32676;52.630;4.896;2022-07-23T02:34:55;99135.28;;;14.06;78.66
46942;BME280;32676;52.630;4.896;2022-07-23T02:37:21;99124.81;;;14.04;78.94
46942;BME280;32676;52.630;4.896;2022-07-23T02:39:48;99125.19;;;13.99;79.12
46942;BME280;32676;52.630;4.896;2022-07-23T02:42:14;99120.72;;;14.00;79.32
46942;BME280;32676;52.630;4.896;2022-07-23T02:44:41;99108.94;;;13.93;79.11
46942;BME280;32676;52.630;4.896;2022-07-23T02:47:08;99131.28;;;14.00;79.38
46942;BME280;32676;52.630;4.896;2022-07-23T02:49:36;99138.28;;;14.01;79.79
46942;BME280;32676;52.630;4.896;2022-07-23T02:52:03;99095.06;;;13.78;79.88
46942;BME280;32676;52.630;4.896;2022-07-23T02:54:30;99109.78;;;13.93;79.59
46942;BME280;32676;52.630;4.896;2022-07-23T02:56:57;99109.66;;;13.95;79.96
46942;BME280;32676;52.630;4.896;2022-07-23T02:59:24;99103.88;;;13.90;80.09
46942;BME280;32676;52.630;4.896;2022-07-23T03:01:50;99097.75;;;13.89;80.09
46942;BME280;32676;52.630;4.896;2022-07-23T03:04:17;99083.22;;;13.83;80.22
46942;BME280;32676;52.630;4.896;2022-07-23T03:06:45;99072.88;;;13.80;80.26
46942;BME280;32676;52.630;4.896;2022-07-23T03:09:11;99073.72;;;13.81;80.27
46942;BME280;32676;52.630;4.896;2022-07-23T03:11:38;99058.94;;;13.78;80.31
46942;BME280;32676;52.630;4.896;2022-07-23T03:14:05;99048.63;;;13.75;79.94
46942;BME280;32676;52.630;4.896;2022-07-23T03:16:32;99042.75;;;13.72;79.97
46942;BME280;32676;52.630;4.896;2022-07-23T03:18:59;99045.25;;;13.73;80.31
46942;BME280;32676;52.630;4.896;2022-07-23T03:21:26;99032.88;;;13.62;80.42
46942;BME280;32676;52.630;4.896;2022-07-23T03:23:53;99046.94;;;13.74;80.47
46942;BME280;32676;52.630;4.896;2022-07-23T03:26:20;99052.31;;;13.73;80.49
46942;BME280;32676;52.630;4.896;2022-07-23T03:28:50;99056.03;;;13.70;80.24
46942;BME280;32676;52.630;4.896;2022-07-23T03:31:16;99054.47;;;13.68;80.41
46942;BME280;32676;52.630;4.896;2022-07-23T03:33:43;99072.50;;;13.74;80.14
46942;BME280;32676;52.630;4.896;2022-07-23T03:36:09;99069.75;;;13.75;80.51
46942;BME280;32676;52.630;4.896;2022-07-23T03:38:36;99073.34;;;13.74;80.45
46942;BME280;32676;52.630;4.896;2022-07-23T03:41:04;99065.75;;;13.70;80.15
46942;BME280;32676;52.630;4.896;2022-07-23T03:43:30;99081.38;;;13.73;80.45
46942;BME280;32676;52.630;4.896;2022-07-23T03:45:58;99092.53;;;13.76;80.52
46942;BME280;32676;52.630;4.896;2022-07-23T03:48:24;99085.09;;;13.70;80.32
46942;BME280;32676;52.630;4.896;2022-07-23T03:50:53;99110.69;;;13.81;80.55
46942;BME280;32676;52.630;4.896;2022-07-23T03:53:19;99102.88;;;13.79;80.47
46942;BME280;32676;52.630;4.896;2022-07-23T03:55:46;99089.38;;;13.71;80.55
46942;BME280;32676;52.630;4.896;2022-07-23T03:58:14;99099.72;;;13.74;80.43
46942;BME280;32676;52.630;4.896;2022-07-23T04:00:40;99102.25;;;13.76;80.76
46942;BME280;32676;52.630;4.896;2022-07-23T04:03:07;99093.63;;;13.74;80.83
46942;BME280;32676;52.630;4.896;2022-07-23T04:05:33;99104.06;;;13.75;81.10
46942;BME280;32676;52.630;4.896;2022-07-23T04:08:00;99102.59;;;13.71;81.18
46942;BME280;32676;52.630;4.896;2022-07-23T04:10:26;99114.63;;;13.75;81.06
46942;BME280;32676;52.630;4.896;2022-07-23T04:12:54;99113.88;;;13.73;81.00
46942;BME280;32676;52.630;4.896;2022-07-23T04:15:22;99123.28;;;13.77;80.94
46942;BME280;32676;52.630;4.896;2022-07-23T04:17:49;99122.56;;;13.75;81.12
46942;BME280;32676;52.630;4.896;2022-07-23T04:20:16;99127.31;;;13.70;81.02
46942;BME280;32676;52.630;4.896;2022-07-23T04:22:42;99164.13;;;13.85;81.07
46942;BME280;32676;52.630;4.896;2022-07-23T04:25:09;99176.34;;;13.86;81.43
46942;BME280;32676;52.630;4.896;2022-07-23T04:27:35;99189.34;;;13.89;81.42
46942;BME280;32676;52.630;4.896;2022-07-23T04:30:02;99180.91;;;13.83;81.16
46942;BME280;32676;52.630;4.896;2022-07-23T04:32:30;99202.31;;;13.92;81.40
46942;BME280;32676;52.630;4.896;2022-07-23T04:34:57;99228.50;;;13.95;81.58
46942;BME280;32676;52.630;4.896;2022-07-23T04:37:24;99234.28;;;14.00;81.26
46942;BME280;32676;52.630;4.896;2022-07-23T04:39:51;99263.13;;;14.03;80.88
46942;BME280;32676;52.630;4.896;2022-07-23T04:42:17;99297.75;;;14.11;81.14
46942;BME280;32676;52.630;4.896;2022-07-23T04:44:44;99335.88;;;14.20;81.30
46942;BME280;32676;52.630;4.896;2022-07-23T04:47:10;99364.63;;;14.25;81.79
46942;BME280;32676;52.630;4.896;2022-07-23T04:49:38;99410.34;;;14.38;81.58
46942;BME280;32676;52.630;4.896;2022-07-23T04:52:04;99440.88;;;14.42;81.70
46942;BME280;32676;52.630;4.896;2022-07-23T04:54:31;99466.16;;;14.46;81.29
46942;BME280;32676;52.630;4.896;2022-07-23T04:56:58;99509.31;;;14.59;80.94
46942;BME280;32676;52.630;4.896;2022-07-23T04:59:24;99541.47;;;14.66;80.61
46942;BME280;32676;52.630;4.896;2022-07-23T05:01:51;99571.69;;;14.75;80.96
46942;BME280;32676;52.630;4.896;2022-07-23T05:04:17;99594.75;;;14.73;80.50
46942;BME280;32676;52.630;4.896;2022-07-23T05:06:45;99646.34;;;14.91;79.77
46942;BME280;32676;52.630;4.896;2022-07-23T05:09:12;99691.03;;;14.96;79.64
46942;BME280;32676;52.630;4.896;2022-07-23T05:11:38;99756.00;;;15.13;79.10
46942;BME280;32676;52.630;4.896;2022-07-23T05:14:05;99829.69;;;15.32;79.11
46942;BME280;32676;52.630;4.896;2022-07-23T05:16:32;99907.22;;;15.47;79.39
46942;BME280;32676;52.630;4.896;2022-07-23T05:18:58;99972.38;;;15.62;78.43
46942;BME280;32676;52.630;4.896;2022-07-23T05:21:24;100041.84;;;15.80;77.75
46942;BME280;32676;52.630;4.896;2022-07-23T05:23:52;100077.47;;;15.89;77.39
46942;BME280;32676;52.630;4.896;2022-07-23T05:26:19;100108.84;;;15.95;77.75
46942;BME280;32676;52.630;4.896;2022-07-23T05:28:45;100117.78;;;15.94;77.52
46942;BME280;32676;52.630;4.896;2022-07-23T05:31:12;100140.28;;;16.01;77.45
46942;BME280;32676;52.630;4.896;2022-07-23T05:33:38;100148.97;;;16.03;76.91
46942;BME280;32676;52.630;4.896;2022-07-23T05:36:05;100169.97;;;16.06;76.34
46942;BME280;32676;52.630;4.896;2022-07-23T05:38:32;100187.38;;;16.10;75.94
46942;BME280;32676;52.630;4.896;2022-07-23T05:41:00;100211.78;;;16.16;75.48
46942;BME280;32676;52.630;4.896;2022-07-23T05:43:27;100256.63;;;16.19;74.98
46942;BME280;32676;52.630;4.896;2022-07-23T05:45:54;100345.09;;;16.45;75.28
46942;BME280;32676;52.630;4.896;2022-07-23T05:48:20;100396.47;;;16.57;74.33
46942;BME280;32676;52.630;4.896;2022-07-23T05:50:47;100430.38;;;16.66;73.60
46942;BME280;32676;52.630;4.896;2022-07-23T05:53:14;100466.41;;;16.70;73.94
46942;BME280;32676;52.630;4.896;2022-07-23T05:55:40;100495.94;;;16.78;73.95
46942;BME280;32676;52.630;4.896;2022-07-23T05:58:08;100532.53;;;16.87;73.65
46942;BME280;32676;52.630;4.896;2022-07-23T06:00:35;100552.91;;;16.87;73.01
46942;BME280;32676;52.630;4.896;2022-07-23T06:03:01;100595.28;;;17.03;72.44
46942;BME280;32676;52.630;4.896;2022-07-23T06:05:28;100611.88;;;17.06;72.71
46942;BME280;32676;52.630;4.896;2022-07-23T06:07:54;100607.59;;;17.04;71.64
46942;BME280;32676;52.630;4.896;2022-07-23T06:10:21;100622.56;;;17.05;71.51
46942;BME280;32676;52.630;4.896;2022-07-23T06:12:47;100618.03;;;17.07;71.44
46942;BME280;32676;52.630;4.896;2022-07-23T06:15:15;100625.03;;;17.08;71.21
46942;BME280;32676;52.630;4.896;2022-07-23T06:17:42;100611.47;;;16.98;71.79
46942;BME280;32676;52.630;4.896;2022-07-23T06:20:10;100667.72;;;17.19;72.72
46942;BME280;32676;52.630;4.896;2022-07-23T06:22:37;100681.16;;;17.16;73.05
46942;BME280;32676;52.630;4.896;2022-07-23T06:25:05;100745.84;;;17.30;72.88
46942;BME280;32676;52.630;4.896;2022-07-23T06:27:31;100783.03;;;17.44;71.52
46942;BME280;32676;52.630;4.896;2022-07-23T06:29:58;100816.41;;;17.48;70.99
46942;BME280;32676;52.630;4.896;2022-07-23T06:32:27;100849.53;;;17.57;70.30
46942;BME280;32676;52.630;4.896;2022-07-23T06:34:53;100900.13;;;17.70;70.35
46942;BME280;32676;52.630;4.896;2022-07-23T06:37:20;100960.53;;;17.82;69.58
46942;BME280;32676;52.630;4.896;2022-07-23T06:39:46;101025.31;;;17.95;69.18
46942;BME280;32676;52.630;4.896;2022-07-23T06:42:13;101060.31;;;18.03;68.34
46942;BME280;32676;52.630;4.896;2022-07-23T06:44:40;101114.28;;;18.20;66.83
46942;BME280;32676;52.630;4.896;2022-07-23T06:47:06;101159.72;;;18.31;66.07
46942;BME280;32676;52.630;4.896;2022-07-23T06:49:34;101211.78;;;18.35;66.13
46942;BME280;32676;52.630;4.896;2022-07-23T06:52:01;101266.63;;;18.54;65.36
46942;BME280;32676;52.630;4.896;2022-07-23T06:54:28;101310.38;;;18.64;64.90
46942;BME280;32676;52.630;4.896;2022-07-23T06:56:54;101349.19;;;18.68;64.99
46942;BME280;32676;52.630;4.896;2022-07-23T06:59:21;101372.63;;;18.77;64.32
46942;BME280;32676;52.630;4.896;2022-07-23T07:01:47;101407.66;;;18.86;64.14
46942;BME280;32676;52.630;4.896;2022-07-23T07:04:14;101420.81;;;18.89;63.50
46942;BME280;32676;52.630;4.896;2022-07-23T07:06:42;101440.06;;;18.94;62.85
46942;BME280;32676;52.630;4.896;2022-07-23T07:09:08;101447.06;;;18.95;62.77
46942;BME280;32676;52.630;4.896;2022-07-23T07:11:35;101493.63;;;19.04;63.19
46942;BME280;32676;52.630;4.896;2022-07-23T07:14:02;101544.31;;;19.18;63.31
46942;BME280;32676;52.630;4.896;2022-07-23T07:16:31;101576.81;;;19.25;63.07
46942;BME280;32676;52.630;4.896;2022-07-23T07:18:58;101570.53;;;19.26;62.14
46942;BME280;32676;52.630;4.896;2022-07-23T07:21:24;101553.94;;;19.21;61.18
46942;BME280;32676;52.630;4.896;2022-07-23T07:23:54;101589.03;;;19.29;61.58
46942;BME280;32676;52.630;4.896;2022-07-23T07:26:21;101631.13;;;19.38;61.61
46942;BME280;32676;52.630;4.896;2022-07-23T07:28:47;101701.31;;;19.54;61.33
46942;BME280;32676;52.630;4.896;2022-07-23T07:31:14;101739.03;;;19.63;60.44
46942;BME280;32676;52.630;4.896;2022-07-23T07:33:40;101720.56;;;19.60;60.05
46942;BME280;32676;52.630;4.896;2022-07-23T07:36:07;101720.56;;;19.60;60.26
46942;BME280;32676;52.630;4.896;2022-07-23T07:38:34;101818.84;;;19.83;60.93
46942;BME280;32676;52.630;4.896;2022-07-23T07:41:01;101911.97;;;20.04;61.26
46942;BME280;32676;52.630;4.896;2022-07-23T07:43:28;101962.00;;;20.16;60.78
46942;BME280;32676;52.630;4.896;2022-07-23T07:45:54;101993.63;;;20.24;59.71
46942;BME280;32676;52.630;4.896;2022-07-23T07:48:21;101945.38;;;20.11;58.75
46942;BME280;32676;52.630;4.896;2022-07-23T07:50:48;101988.34;;;20.22;58.89
46942;BME280;32676;52.630;4.896;2022-07-23T07:53:15;102033.22;;;20.31;58.38
46942;BME280;32676;52.630;4.896;2022-07-23T07:55:42;102003.25;;;20.26;57.97
46942;BME280;32676;52.630;4.896;2022-07-23T07:58:10;102035.75;;;20.35;58.05
46942;BME280;32676;52.630;4.896;2022-07-23T08:00:36;102042.81;;;20.36;58.80
46942;BME280;32676;52.630;4.896;2022-07-23T08:03:03;102053.31;;;20.39;58.06
46942;BME280;32676;52.630;4.896;2022-07-23T08:05:30;102072.63;;;20.44;58.26
46942;BME280;32676;52.630;4.896;2022-07-23T08:07:58;102112.09;;;20.55;58.04
46942;BME280;32676;52.630;4.896;2022-07-23T08:10:26;102188.69;;;20.71;59.46
46942;BME280;32676;52.630;4.896;2022-07-23T08:12:55;102164.00;;;20.66;58.15
46942;BME280;32676;52.630;4.896;2022-07-23T08:15:26;102163.09;;;20.67;57.53
46942;BME280;32676;52.630;4.896;2022-07-23T08:17:53;102214.13;;;20.79;57.45
46942;BME280;32676;52.630;4.896;2022-07-23T08:20:21;102234.63;;;20.78;57.66
46942;BME280;32676;52.630;4.896;2022-07-23T08:22:49;102328.59;;;21.04;57.47
46942;BME280;32676;52.630;4.896;2022-07-23T08:25:20;102388.41;;;21.19;56.03
46942;BME280;32676;52.630;4.896;2022-07-23T08:27:48;102459.81;;;21.34;56.28
46942;BME280;32676;52.630;4.896;2022-07-23T08:30:14;102509.16;;;21.46;56.00
46942;BME280;32676;52.630;4.896;2022-07-23T08:32:54;102519.63;;;21.51;56.00
46942;BME280;32676;52.630;4.896;2022-07-23T08:35:26;102555.81;;;21.58;55.54
46942;BME280;32676;52.630;4.896;2022-07-23T08:37:52;102548.72;;;21.57;54.68
46942;BME280;32676;52.630;4.896;2022-07-23T08:40:20;102610.41;;;21.71;55.42
46942;BME280;32676;52.630;4.896;2022-07-23T08:42:51;102630.72;;;21.75;55.12
46942;BME280;32676;52.630;4.896;2022-07-23T08:45:18;102672.13;;;21.85;54.87
46942;BME280;32676;52.630;4.896;2022-07-23T08:47:49;102726.78;;;21.99;54.17
46942;BME280;32676;52.630;4.896;2022-07-23T08:50:17;102709.00;;;21.98;54.32
46942;BME280;32676;52.630;4.896;2022-07-23T08:52:44;102686.94;;;21.93;53.63
46942;BME280;32676;52.630;4.896;2022-07-23T08:55:10;102693.09;;;21.95;54.44
46942;BME280;32676;52.630;4.896;2022-07-23T08:57:37;102684.28;;;21.93;54.20
46942;BME280;32676;52.630;4.896;2022-07-23T09:00:05;102707.19;;;21.98;54.22
46942;BME280;32676;52.630;4.896;2022-07-23T09:02:38;102685.97;;;21.94;54.07
46942;BME280;32676;52.630;4.896;2022-07-23T09:05:06;102772.31;;;22.16;54.60
46942;BME280;32676;52.630;4.896;2022-07-23T09:07:34;102829.63;;;22.31;54.35
46942;BME280;32676;52.630;4.896;2022-07-23T09:10:09;102835.78;;;22.33;53.69
46942;BME280;32676;52.630;4.896;2022-07-23T09:12:36;102879.06;;;22.43;53.55
46942;BME280;32676;52.630;4.896;2022-07-23T09:15:04;102911.69;;;22.51;53.49
46942;BME280;32676;52.630;4.896;2022-07-23T09:17:39;102925.88;;;22.53;54.11
46942;BME280;32676;52.630;4.896;2022-07-23T09:20:11;102945.28;;;22.58;53.55
46942;BME280;32676;52.630;4.896;2022-07-23T09:22:40;102989.28;;;22.72;54.19
46942;BME280;32676;52.630;4.896;2022-07-23T09:25:12;103095.47;;;22.93;54.23
46942;BME280;32676;52.630;4.896;2022-07-23T09:27:51;103139.69;;;23.04;53.73
46942;BME280;32676;52.630;4.896;2022-07-23T09:30:19;103137.81;;;23.06;52.59
46942;BME280;32676;52.630;4.896;2022-07-23T09:33:07;103150.13;;;23.10;51.86
46942;BME280;32676;52.630;4.896;2022-07-23T09:35:48;103128.84;;;23.07;51.61
46942;BME280;32676;52.630;4.896;2022-07-23T09:38:17;103112.00;;;23.03;51.40
46942;BME280;32676;52.630;4.896;2022-07-23T09:40:44;103110.13;;;23.05;51.50
46942;BME280;32676;52.630;4.896;2022-07-23T09:43:11;103116.38;;;23.06;52.55
46942;BME280;32676;52.630;4.896;2022-07-23T09:45:38;103086.31;;;22.97;52.87
46942;BME280;32676;52.630;4.896;2022-07-23T09:48:12;103080.81;;;23.00;51.23
46942;BME280;32676;52.630;4.896;2022-07-23T09:50:40;103089.66;;;23.03;52.07
46942;BME280;32676;52.630;4.896;2022-07-23T09:53:07;103041.84;;;22.93;53.37
46942;BME280;32676;52.630;4.896;2022-07-23T09:55:36;102923.38;;;22.68;52.86
46942;BME280;32676;52.630;4.896;2022-07-23T09:58:04;102854.31;;;22.55;52.30
46942;BME280;32676;52.630;4.896;2022-07-23T10:00:32;102884.44;;;22.60;52.65
46942;BME280;32676;52.630;4.896;2022-07-23T10:02:59;102948.00;;;22.76;53.58
46942;BME280;32676;52.630;4.896;2022-07-23T10:05:27;102962.19;;;22.78;53.81
46942;BME280;32676;52.630;4.896;2022-07-23T10:07:54;102915.97;;;22.73;53.37
46942;BME280;32676;52.630;4.896;2022-07-23T10:10:22;102886.00;;;22.65;53.78
46942;BME280;32676;52.630;4.896;2022-07-23T10:12:53;102790.94;;;22.37;54.11
46942;BME280;32676;52.630;4.896;2022-07-23T10:15:46;102796.03;;;22.43;54.08
46942;BME280;32676;52.630;4.896;2022-07-23T10:18:13;102865.66;;;22.60;56.83
46942;BME280;32676;52.630;4.896;2022-07-23T10:20:40;102893.81;;;22.69;56.11
46942;BME280;32676;52.630;4.896;2022-07-23T10:23:14;102938.84;;;22.80;57.16
46942;BME280;32676;52.630;4.896;2022-07-23T10:25:49;102919.84;;;22.67;55.49
46942;BME280;32676;52.630;4.896;2022-07-23T10:28:45;102991.84;;;22.92;54.21
46942;BME280;32676;52.630;4.896;2022-07-23T10:31:20;103005.09;;;22.95;53.92
46942;BME280;32676;52.630;4.896;2022-07-23T10:33:56;102965.19;;;22.89;52.64
46942;BME280;32676;52.630;4.896;2022-07-23T10:36:32;102980.16;;;22.93;54.39
46942;BME280;32676;52.630;4.896;2022-07-23T10:39:06;102977.50;;;22.93;54.60
46942;BME280;32676;52.630;4.896;2022-07-23T10:41:36;102995.16;;;22.97;54.30
46942;BME280;32676;52.630;4.896;2022-07-23T10:44:09;103035.03;;;23.05;53.82
46942;BME280;32676;52.630;4.896;2022-07-23T10:46:54;103062.25;;;23.15;54.09
46942;BME280;32676;52.630;4.896;2022-07-23T10:49:28;103130.38;;;23.30;53.42
46942;BME280;32676;52.630;4.896;2022-07-23T10:52:21;103218.81;;;23.50;53.18
46942;BME280;32676;52.630;4.896;2022-07-23T10:54:49;103278.16;;;23.63;52.75
46942;BME280;32676;52.630;4.896;2022-07-23T10:57:17;103308.16;;;23.71;52.07
46942;BME280;32676;52.630;4.896;2022-07-23T11:00:15;103387.84;;;23.90;52.29
46942;BME280;32676;52.630;4.896;2022-07-23T11:02:44;103377.09;;;23.90;51.03
46942;BME280;32676;52.630;4.896;2022-07-23T11:05:14;103355.78;;;23.87;50.81
46942;BME280;32676;52.630;4.896;2022-07-23T11:08:09;103330.97;;;23.82;52.21
46942;BME280;32676;52.630;4.896;2022-07-23T11:10:38;103322.13;;;23.80;52.42
46942;BME280;32676;52.630;4.896;2022-07-23T11:13:36;103352.16;;;23.88;51.55
46942;BME280;32676;52.630;4.896;2022-07-23T11:16:13;103408.69;;;24.04;51.02
46942;BME280;32676;52.630;4.896;2022-07-23T11:18:54;103386.63;;;23.97;49.89
46942;BME280;32676;52.630;4.896;2022-07-23T11:21:51;103367.97;;;23.94;51.13
46942;BME280;32676;52.630;4.896;2022-07-23T11:24:20;103394.38;;;24.03;51.52
46942;BME280;32676;52.630;4.896;2022-07-23T11:26:54;103436.94;;;24.12;51.74
46942;BME280;32676;52.630;4.896;2022-07-23T11:32:34;103465.06;;;24.23;50.76
46942;BME280;32676;52.630;4.896;2022-07-23T11:35:18;103477.44;;;24.27;51.05
46942;BME280;32676;52.630;4.896;2022-07-23T11:37:46;103457.31;;;24.17;50.31
46942;BME280;32676;52.630;4.896;2022-07-23T11:40:16;103417.16;;;24.13;49.10
46942;BME280;32676;52.630;4.896;2022-07-23T11:42:58;103371.16;;;24.02;49.38
46942;BME280;32676;52.630;4.896;2022-07-23T11:45:32;103358.50;;;24.04;50.37
46942;BME280;32676;52.630;4.896;2022-07-23T11:48:00;103401.03;;;24.13;50.60
46942;BME280;32676;52.630;4.896;2022-07-23T11:50:27;103455.94;;;24.27;50.40
46942;BME280;32676;52.630;4.896;2022-07-23T11:52:54;103510.81;;;24.40;50.25
46942;BME280;32676;52.630;4.896;2022-07-23T11:55:21;103516.06;;;24.43;49.66
46942;BME280;32676;52.630;4.896;2022-07-23T11:57:47;103560.53;;;24.50;49.42
46942;BME280;32676;52.630;4.896;2022-07-23T12:00:18;103549.91;;;24.47;48.69
46942;BME280;32676;52.630;4.896;2022-07-23T12:02:47;103552.31;;;24.53;48.40
46942;BME280;32676;52.630;4.896;2022-07-23T12:05:16;103540.63;;;24.55;48.55
46942;BME280;32676;52.630;4.896;2022-07-23T12:07:44;103577.97;;;24.61;49.16
46942;BME280;32676;52.630;4.896;2022-07-23T12:10:16;103633.72;;;24.76;49.39
46942;BME280;32676;52.630;4.896;2022-07-23T12:12:44;103611.69;;;24.68;48.57
46942;BME280;32676;52.630;4.896;2022-07-23T12:15:12;103634.50;;;24.78;48.52
46942;BME280;32676;52.630;4.896;2022-07-23T12:17:41;103639.88;;;24.78;48.98
46942;BME280;32676;52.630;4.896;2022-07-23T12:20:12;103673.44;;;24.88;49.60
46942;BME280;32676;52.630;4.896;2022-07-23T12:22:42;103666.19;;;24.90;49.08
46942;BME280;32676;52.630;4.896;2022-07-23T12:25:11;103669.81;;;24.89;49.43
46942;BME280;32676;52.630;4.896;2022-07-23T12:27:39;103679.00;;;24.85;49.27
46942;BME280;32676;52.630;4.896;2022-07-23T12:30:20;103683.88;;;24.96;48.86
46942;BME280;32676;52.630;4.896;2022-07-23T12:32:50;103641.16;;;24.88;48.92
46942;BME280;32676;52.630;4.896;2022-07-23T12:35:17;103582.63;;;24.76;48.54
46942;BME280;32676;52.630;4.896;2022-07-23T12:37:47;103574.53;;;24.76;49.81
46942;BME280;32676;52.630;4.896;2022-07-23T12:40:28;103523.91;;;24.67;48.50
46942;BME280;32676;52.630;4.896;2022-07-23T12:42:56;103497.28;;;24.61;48.36
46942;BME280;32676;52.630;4.896;2022-07-23T12:45:24;103527.38;;;24.69;49.15
46942;BME280;32676;52.630;4.896;2022-07-23T12:48:03;103588.53;;;24.83;50.35
46942;BME280;32676;52.630;4.896;2022-07-23T12:50:41;103626.63;;;24.93;49.47
46942;BME280;32676;52.630;4.896;2022-07-23T12:53:12;103701.94;;;25.12;48.95
46942;BME280;32676;52.630;4.896;2022-07-23T12:55:39;103733.97;;;25.18;48.57
46942;BME280;32676;52.630;4.896;2022-07-23T12:58:09;103792.44;;;25.33;48.90
46942;BME280;32676;52.630;4.896;2022-07-23T13:00:56;103802.19;;;25.36;48.45
46942;BME280;32676;52.630;4.896;2022-07-23T13:03:25;103750.69;;;25.24;48.15
46942;BME280;32676;52.630;4.896;2022-07-23T13:05:52;103773.69;;;25.32;48.28